createdAt,value
2022-08-02T00:00:09.657Z,84.10
2022-08-02T00:02:36.359Z,84.10
2022-08-02T00:05:02.760Z,84.00
2022-08-02T00:07:28.886Z,83.80
2022-08-02T00:09:55.255Z,83.40
2022-08-02T00:12:21.869Z,83.40
2022-08-02T00:14:48.298Z,83.50
2022-08-02T00:17:14.504Z,83.60
2022-08-02T00:19:40.644Z,83.50
2022-08-02T00:22:06.725Z,83.20
2022-08-02T00:24:32.829Z,83.20
2022-08-02T00:26:59.421Z,83.20
2022-08-02T00:29:25.855Z,83.20
2022-08-02T00:31:51.904Z,83.10
2022-08-02T00:34:29.822Z,83.30
2022-08-02T00:36:57.500Z,83.60
2022-08-02T00:39:34.415Z,83.80
2022-08-02T00:42:01.743Z,84.00
2022-08-02T00:44:27.797Z,84.20
2022-08-02T00:46:53.862Z,84.20
2022-08-02T00:49:21.391Z,84.40
2022-08-02T00:51:47.743Z,84.60
2022-08-02T00:54:14.138Z,84.80
2022-08-02T00:56:40.645Z,84.70
2022-08-02T00:59:16.414Z,84.70
2022-08-02T01:01:56.160Z,85.00
2022-08-02T01:04:31.311Z,84.40
2022-08-02T01:07:03.427Z,84.20
2022-08-02T01:09:40.873Z,83.80
2022-08-02T01:12:07.509Z,83.50
2022-08-02T01:14:33.908Z,83.60
2022-08-02T01:17:08.020Z,83.60
2022-08-02T01:19:42.943Z,83.80
2022-08-02T01:23:00.569Z,84.20
2022-08-02T01:25:39.352Z,84.30
2022-08-02T01:28:19.379Z,84.20
2022-08-02T01:30:49.262Z,83.80
2022-08-02T01:33:20.243Z,83.40
2022-08-02T01:35:53.443Z,83.50
2022-08-02T01:38:42.961Z,83.60
2022-08-02T01:41:14.146Z,83.70
2022-08-02T01:43:43.774Z,83.60
2022-08-02T01:46:13.414Z,83.40
2022-08-02T01:48:41.425Z,83.00
2022-08-02T01:51:11.573Z,82.90
2022-08-02T01:53:39.870Z,82.90
2022-08-02T01:56:07.992Z,82.50
2022-08-02T01:58:36.725Z,82.10
2022-08-02T02:01:05.772Z,82.10
2022-08-02T02:03:33.616Z,82.40
2022-08-02T02:06:02.297Z,82.20
2022-08-02T02:08:35.920Z,82.00
2022-08-02T02:12:12.390Z,82.00
2022-08-02T02:13:49.923Z,81.80
2022-08-02T02:16:18.885Z,81.20
2022-08-02T02:18:48.547Z,80.80
2022-08-02T02:21:14.900Z,80.50
2022-08-02T02:23:42.836Z,80.60
2022-08-02T02:26:12.939Z,80.40
2022-08-02T02:28:40.457Z,80.80
2022-08-02T02:31:08.925Z,80.20
2022-08-02T02:33:48.317Z,80.50
2022-08-02T02:36:17.117Z,80.60
2022-08-02T02:38:44.769Z,80.40
2022-08-02T02:41:13.384Z,80.40
2022-08-02T02:43:40.985Z,80.30
2022-08-02T02:46:09.682Z,80.20
2022-08-02T02:48:36.857Z,80.20
2022-08-02T02:51:08.195Z,80.20
2022-08-02T02:54:30.089Z,80.00
2022-08-02T02:56:28.334Z,79.90
2022-08-02T02:58:54.550Z,79.60
2022-08-02T03:01:55.948Z,79.30
2022-08-02T03:04:15.613Z,79.40
2022-08-02T03:06:41.794Z,79.50
2022-08-02T03:09:09.065Z,79.40
2022-08-02T03:11:38.774Z,79.50
2022-08-02T03:14:08.226Z,79.30
2022-08-02T03:16:42.910Z,79.00
2022-08-02T03:19:09.125Z,78.40
2022-08-02T03:21:35.183Z,78.50
2022-08-02T03:24:01.231Z,78.90
2022-08-02T03:26:27.343Z,78.60
2022-08-02T03:28:53.399Z,78.70
2022-08-02T03:31:19.570Z,78.90
2022-08-02T03:33:46.385Z,78.40
2022-08-02T03:36:16.968Z,78.00
2022-08-02T03:38:45.327Z,78.00
2022-08-02T03:41:15.654Z,78.10
2022-08-02T03:43:43.530Z,78.10
2022-08-02T03:46:12.279Z,77.90
2022-08-02T03:48:38.974Z,77.70
2022-08-02T03:51:06.225Z,77.40
2022-08-02T03:53:33.153Z,77.20
2022-08-02T03:56:00.007Z,77.30
2022-08-02T03:58:26.231Z,77.20
2022-08-02T04:00:56.336Z,77.00
2022-08-02T04:03:22.686Z,76.80
2022-08-02T04:06:03.973Z,76.60
2022-08-02T04:08:36.857Z,76.50
2022-08-02T04:11:22.856Z,76.60
2022-08-02T04:13:49.016Z,76.80
2022-08-02T04:16:20.937Z,77.10
2022-08-02T04:18:55.493Z,77.10
2022-08-02T04:21:26.766Z,77.10
2022-08-02T04:24:18.630Z,77.30
2022-08-02T04:26:48.790Z,77.40
2022-08-02T04:29:17.937Z,77.40
2022-08-02T04:31:44.517Z,77.70
2022-08-02T04:34:15.011Z,78.10
2022-08-02T04:36:42.361Z,78.50
2022-08-02T04:39:08.568Z,78.20
2022-08-02T04:41:44.065Z,78.30
2022-08-02T04:44:11.345Z,78.60
2022-08-02T04:46:38.457Z,78.60
2022-08-02T04:49:05.359Z,78.90
2022-08-02T04:51:38.392Z,79.00
2022-08-02T04:54:09.626Z,79.10
2022-08-02T04:56:37.000Z,79.10
2022-08-02T04:59:03.079Z,79.00
2022-08-02T05:01:29.456Z,79.10
2022-08-02T05:03:55.628Z,79.00
2022-08-02T05:06:21.676Z,79.00
2022-08-02T05:08:53.258Z,79.00
2022-08-02T05:11:34.429Z,78.90
2022-08-02T05:14:03.441Z,78.70
2022-08-02T05:16:31.019Z,78.60
2022-08-02T05:19:01.292Z,78.50
2022-08-02T05:21:28.491Z,78.70
2022-08-02T05:23:54.682Z,78.50
2022-08-02T05:26:20.872Z,78.40
2022-08-02T05:28:46.984Z,78.10
2022-08-02T05:31:13.522Z,78.00
2022-08-02T05:33:40.133Z,77.90
2022-08-02T05:36:06.494Z,77.70
2022-08-02T05:38:32.590Z,77.60
2022-08-02T05:41:03.525Z,77.20
2022-08-02T05:43:29.614Z,76.30
2022-08-02T05:45:55.705Z,75.80
2022-08-02T05:48:22.300Z,75.70
2022-08-02T05:50:53.440Z,75.10
2022-08-02T05:53:24.561Z,74.20
2022-08-02T05:56:08.917Z,73.30
2022-08-02T05:59:05.024Z,72.30
2022-08-02T06:01:42.226Z,71.60
2022-08-02T06:07:02.238Z,70.90
2022-08-02T06:09:29.006Z,69.50
2022-08-02T06:12:01.466Z,68.70
2022-08-02T06:14:32.214Z,67.80
2022-08-02T06:17:00.313Z,67.10
2022-08-02T06:19:30.961Z,66.30
2022-08-02T06:22:42.274Z,65.20
2022-08-02T06:25:03.482Z,65.10
2022-08-02T06:27:30.167Z,64.70
2022-08-02T06:29:57.438Z,64.70
2022-08-02T06:32:25.632Z,64.70
2022-08-02T06:34:52.069Z,64.20
2022-08-02T06:37:26.331Z,63.40
2022-08-02T06:40:06.860Z,62.30
2022-08-02T06:42:43.508Z,61.30
2022-08-02T06:45:09.791Z,59.10
2022-08-02T06:47:36.017Z,58.50
2022-08-02T06:50:03.515Z,58.10
2022-08-02T06:52:34.242Z,53.90
2022-08-02T06:55:02.720Z,54.30
2022-08-02T06:57:30.250Z,53.40
2022-08-02T06:59:57.909Z,52.70
2022-08-02T07:06:15.062Z,52.30
2022-08-02T07:08:41.280Z,52.10
2022-08-02T07:17:23.942Z,50.60
2022-08-02T07:19:50.044Z,50.40
2022-08-02T07:22:18.079Z,50.50
2022-08-02T07:24:44.789Z,49.30
2022-08-02T07:31:05.508Z,48.50
2022-08-02T07:37:35.622Z,47.20
2022-08-02T07:41:20.896Z,47.60
2022-08-02T07:44:49.280Z,48.00
2022-08-02T07:47:15.742Z,46.80
2022-08-02T07:49:41.909Z,46.20
2022-08-02T07:52:08.106Z,45.70
2022-08-02T07:54:53.950Z,45.40
2022-08-02T07:57:20.445Z,45.50
2022-08-02T07:59:47.447Z,45.40
2022-08-02T08:02:14.458Z,44.50
2022-08-02T08:04:41.302Z,44.40
2022-08-02T08:07:10.016Z,44.00
2022-08-02T08:09:43.387Z,44.00
2022-08-02T08:12:17.666Z,43.50
2022-08-02T08:14:47.407Z,43.30
2022-08-02T08:17:19.560Z,42.70
2022-08-02T08:34:31.044Z,42.10
2022-08-02T08:36:57.136Z,41.70
2022-08-02T08:39:23.410Z,41.50
2022-08-02T08:41:49.623Z,40.00
2022-08-02T08:48:47.400Z,40.10
2022-08-02T09:02:28.498Z,39.10
2022-08-02T09:05:01.990Z,38.00
2022-08-02T09:07:55.672Z,38.10
2022-08-02T09:17:56.427Z,37.10
2022-08-02T09:20:23.065Z,35.60
2022-08-02T09:23:09.409Z,35.30
2022-08-02T09:25:38.023Z,34.60
2022-08-02T09:28:06.094Z,34.80
2022-08-02T09:30:44.725Z,34.20
2022-08-02T09:33:11.027Z,34.00
2022-08-02T09:36:06.402Z,33.80
2022-08-02T09:38:28.894Z,34.10
2022-08-02T09:40:57.619Z,33.40
2022-08-02T09:43:51.995Z,33.30
2022-08-02T09:46:44.614Z,34.50
2022-08-02T09:51:48.275Z,35.00
2022-08-02T10:04:53.239Z,34.00
2022-08-02T10:11:24.599Z,35.90
2022-08-02T10:13:52.214Z,37.50
2022-08-02T10:16:43.121Z,39.00
2022-08-02T10:20:27.743Z,40.20
2022-08-02T10:23:28.834Z,40.30
2022-08-02T10:42:04.907Z,36.40
2022-08-02T10:44:33.176Z,36.00
2022-08-02T10:47:16.576Z,36.60
2022-08-02T10:49:57.137Z,37.40
2022-08-02T10:52:27.988Z,38.50
2022-08-02T10:55:01.625Z,37.30
2022-08-02T10:57:34.658Z,36.20
2022-08-02T11:00:26.286Z,35.50
2022-08-02T11:02:55.738Z,36.10
2022-08-02T11:05:43.195Z,35.30
2022-08-02T11:08:24.378Z,34.40
2022-08-02T11:10:50.570Z,34.90
2022-08-02T11:13:19.329Z,33.70
2022-08-02T11:16:12.080Z,33.50
2022-08-02T11:18:50.650Z,33.00
2022-08-02T11:21:25.296Z,32.70
2022-08-02T11:23:52.493Z,32.80
2022-08-02T11:26:30.821Z,32.50
2022-08-02T11:29:02.338Z,31.90
2022-08-02T11:31:37.366Z,31.20
2022-08-02T11:34:09.427Z,30.50
2022-08-02T11:36:50.858Z,30.30
2022-08-02T11:39:20.011Z,30.20
2022-08-02T11:41:50.459Z,30.00
2022-08-02T11:44:17.210Z,29.80
2022-08-02T11:46:43.667Z,29.50
2022-08-02T11:49:17.605Z,29.50
2022-08-02T11:51:55.399Z,30.00
2022-08-02T11:54:30.470Z,29.10
2022-08-02T11:57:21.011Z,28.80
2022-08-02T11:59:51.086Z,28.40
2022-08-02T12:02:18.726Z,28.80
2022-08-02T12:04:58.625Z,28.50
2022-08-02T12:07:34.592Z,28.70
2022-08-02T12:10:18.718Z,27.80
2022-08-02T12:12:58.300Z,28.20
2022-08-02T12:15:43.996Z,28.60
2022-08-02T12:18:33.633Z,28.30
2022-08-02T12:25:34.694Z,28.80
2022-08-02T12:35:26.269Z,29.40
2022-08-02T12:37:53.371Z,29.90
2022-08-02T12:40:25.170Z,28.90
2022-08-02T12:43:05.066Z,29.20
2022-08-02T12:48:37.734Z,28.30
2022-08-02T12:51:24.620Z,28.30
2022-08-02T12:54:20.612Z,27.70
2022-08-02T12:56:57.926Z,28.40
2022-08-02T12:59:39.643Z,27.80
2022-08-02T13:02:11.242Z,27.70
2022-08-02T13:04:38.426Z,28.00
2022-08-02T13:07:05.150Z,28.30
2022-08-02T13:09:44.904Z,27.70
2022-08-02T13:12:12.504Z,27.70
2022-08-02T13:14:42.315Z,28.50
2022-08-02T13:17:09.905Z,28.50
2022-08-02T13:19:36.814Z,28.70
2022-08-02T13:22:11.544Z,28.60
2022-08-02T13:24:55.196Z,29.30
2022-08-02T13:27:24.257Z,29.10
2022-08-02T13:29:51.737Z,29.30
2022-08-02T13:32:18.182Z,28.40
2022-08-02T13:34:44.981Z,28.70
2022-08-02T13:37:11.864Z,28.50
2022-08-02T13:39:38.439Z,28.80
2022-08-02T13:42:05.670Z,29.00
2022-08-02T13:44:33.032Z,29.00
2022-08-02T13:47:00.349Z,28.60
2022-08-02T13:49:50.912Z,28.80
2022-08-02T13:52:13.684Z,29.40
2022-08-02T13:54:49.657Z,29.20
2022-08-02T13:57:16.122Z,30.40
2022-08-02T13:59:55.926Z,30.50
2022-08-02T14:02:24.905Z,30.60
2022-08-02T14:04:51.405Z,30.60
2022-08-02T14:07:17.669Z,31.20
2022-08-02T14:09:44.029Z,31.40
2022-08-02T14:12:12.357Z,32.50
2022-08-02T14:14:38.814Z,32.80
2022-08-02T14:17:05.306Z,33.30
2022-08-02T14:19:31.513Z,34.10
2022-08-02T14:22:11.329Z,33.40
2022-08-02T14:24:39.106Z,34.00
2022-08-02T14:27:05.175Z,35.00
2022-08-02T14:29:31.244Z,35.50
2022-08-02T14:31:57.440Z,35.70
2022-08-02T14:34:23.665Z,36.10
2022-08-02T14:36:53.685Z,36.80
2022-08-02T14:39:20.651Z,37.20
2022-08-02T14:41:58.092Z,37.60
2022-08-02T14:44:26.977Z,38.10
2022-08-02T14:46:53.420Z,38.50
2022-08-02T14:49:25.423Z,38.60
2022-08-02T14:51:55.853Z,38.50
2022-08-02T14:54:30.453Z,39.30
2022-08-02T14:57:01.628Z,39.50
2022-08-02T14:59:28.303Z,39.70
2022-08-02T15:01:55.249Z,40.80
2022-08-02T15:04:21.535Z,40.60
2022-08-02T15:06:47.707Z,40.70
2022-08-02T15:09:14.103Z,41.10
2022-08-02T15:11:48.224Z,41.10
2022-08-02T15:14:20.512Z,41.30
2022-08-02T15:16:56.523Z,41.40
2022-08-02T15:19:35.453Z,41.90
2022-08-02T15:22:13.086Z,42.00
2022-08-02T15:24:43.921Z,41.60
2022-08-02T15:27:12.825Z,41.90
2022-08-02T15:29:39.289Z,42.30
2022-08-02T15:32:05.652Z,42.60
2022-08-02T15:34:31.765Z,42.30
2022-08-02T15:36:57.842Z,43.10
2022-08-02T15:39:24.325Z,43.00
2022-08-02T15:41:50.433Z,43.40
2022-08-02T15:44:16.664Z,43.50
2022-08-02T15:46:42.969Z,43.00
2022-08-02T15:49:09.320Z,44.50
2022-08-02T15:51:35.481Z,43.20
2022-08-02T15:54:01.587Z,43.70
2022-08-02T15:56:27.777Z,43.90
2022-08-02T15:58:56.803Z,44.50
2022-08-02T16:01:25.232Z,44.80
2022-08-02T16:03:58.367Z,45.70
2022-08-02T16:06:27.218Z,45.00
2022-08-02T16:08:55.074Z,45.80
2022-08-02T16:11:22.084Z,45.20
2022-08-02T16:13:54.685Z,45.90
2022-08-02T16:16:26.810Z,45.90
2022-08-02T16:18:53.396Z,46.10
2022-08-02T16:21:20.190Z,46.40
2022-08-02T16:24:01.374Z,46.60
2022-08-02T16:26:30.278Z,46.90
2022-08-02T16:28:57.158Z,47.00
2022-08-02T16:31:23.477Z,47.40
2022-08-02T16:33:50.952Z,47.70
2022-08-02T16:36:24.896Z,47.90
2022-08-02T16:38:53.101Z,47.80
2022-08-02T16:41:19.788Z,48.30
2022-08-02T16:43:45.961Z,48.50
2022-08-02T16:46:12.586Z,48.60
2022-08-02T16:48:39.005Z,48.90
2022-08-02T16:51:05.189Z,49.30
2022-08-02T16:53:59.113Z,48.60
2022-08-02T16:56:27.479Z,48.30
2022-08-02T16:58:54.480Z,48.20
2022-08-02T17:01:24.070Z,48.90
2022-08-02T17:03:58.001Z,48.90
2022-08-02T17:06:26.191Z,48.90
2022-08-02T17:08:55.545Z,49.10
2022-08-02T17:11:23.784Z,49.40
2022-08-02T17:13:50.985Z,49.50
2022-08-02T17:16:20.375Z,49.80
2022-08-02T17:18:53.643Z,50.10
2022-08-02T17:21:19.939Z,50.20
2022-08-02T17:24:03.944Z,50.60
2022-08-02T17:26:32.310Z,50.80
2022-08-02T17:29:17.688Z,51.10
2022-08-02T17:32:12.051Z,51.20
2022-08-02T17:34:34.698Z,51.50
2022-08-02T17:37:01.771Z,51.80
2022-08-02T17:39:44.492Z,52.20
2022-08-02T17:42:19.635Z,52.70
2022-08-02T17:44:49.502Z,52.80
2022-08-02T17:47:17.837Z,53.40
2022-08-02T17:49:48.569Z,53.50
2022-08-02T17:52:50.880Z,53.70
2022-08-02T17:55:02.294Z,54.00
2022-08-02T17:57:56.317Z,54.40
2022-08-02T18:00:17.121Z,55.10
2022-08-02T18:02:43.467Z,55.10
2022-08-02T18:05:21.074Z,55.30
2022-08-02T18:07:52.026Z,55.40
2022-08-02T18:10:22.368Z,55.30
2022-08-02T18:12:49.441Z,55.40
2022-08-02T18:15:15.739Z,55.60
2022-08-02T18:17:42.153Z,55.90
2022-08-02T18:20:11.058Z,56.10
2022-08-02T18:22:37.550Z,56.20
2022-08-02T18:25:09.560Z,56.60
2022-08-02T18:27:36.143Z,57.10
2022-08-02T18:30:08.192Z,57.60
2022-08-02T18:33:55.241Z,57.80
2022-08-02T18:35:23.051Z,57.90
2022-08-02T18:37:58.483Z,58.30
2022-08-02T18:40:30.369Z,58.60
2022-08-02T18:42:56.983Z,58.80
2022-08-02T18:45:23.849Z,59.00
2022-08-02T18:47:51.456Z,59.00
2022-08-02T18:50:18.961Z,59.30
2022-08-02T18:52:47.557Z,59.30
2022-08-02T18:55:17.418Z,59.60
2022-08-02T18:58:18.432Z,59.60
2022-08-02T19:00:47.672Z,59.90
2022-08-02T19:03:18.778Z,60.00
2022-08-02T19:05:53.109Z,60.30
2022-08-02T19:08:25.627Z,60.30
2022-08-02T19:10:53.411Z,60.50
2022-08-02T19:13:23.266Z,60.60
2022-08-02T19:15:50.040Z,60.90
2022-08-02T19:18:18.528Z,62.00
2022-08-02T19:20:48.177Z,61.40
2022-08-02T19:23:14.924Z,61.50
2022-08-02T19:25:45.247Z,61.60
2022-08-02T19:28:26.424Z,62.10
2022-08-02T19:30:55.295Z,62.80
2022-08-02T19:33:54.257Z,62.70
2022-08-02T19:36:07.609Z,63.80
2022-08-02T19:38:34.861Z,63.30
2022-08-02T19:41:01.709Z,63.40
2022-08-02T19:44:23.730Z,64.00
2022-08-02T19:46:15.979Z,63.90
2022-08-02T19:48:46.057Z,63.90
2022-08-02T19:51:14.223Z,64.50
2022-08-02T19:53:48.166Z,64.60
2022-08-02T19:56:20.112Z,65.00
2022-08-02T19:58:47.142Z,65.00
2022-08-02T20:01:14.188Z,65.30
2022-08-02T20:03:52.387Z,65.50
2022-08-02T20:06:19.967Z,65.60
2022-08-02T20:08:59.368Z,65.70
2022-08-02T20:11:28.579Z,66.00
2022-08-02T20:14:00.691Z,66.10
2022-08-02T20:16:28.090Z,66.30
2022-08-02T20:18:55.903Z,66.60
2022-08-02T20:21:36.266Z,67.30
2022-08-02T20:24:06.912Z,67.30
2022-08-02T20:26:35.389Z,67.50
2022-08-02T20:29:03.282Z,67.00
2022-08-02T20:31:30.312Z,67.40
2022-08-02T20:33:56.893Z,67.90
2022-08-02T20:36:24.352Z,68.30
2022-08-02T20:38:50.522Z,68.70
2022-08-02T20:41:21.634Z,69.10
2022-08-02T20:43:48.641Z,69.50
2022-08-02T20:46:14.975Z,69.70
2022-08-02T20:48:41.217Z,69.80
2022-08-02T20:51:09.862Z,70.10
2022-08-02T20:53:54.660Z,70.30
2022-08-02T20:56:21.433Z,70.30
2022-08-02T20:58:47.503Z,70.60
2022-08-02T21:01:21.269Z,70.80
2022-08-02T21:03:58.396Z,71.10
2022-08-02T21:06:26.230Z,71.50
2022-08-02T21:08:54.793Z,71.70
2022-08-02T21:11:20.971Z,71.80
2022-08-02T21:14:07.808Z,72.00
2022-08-02T21:16:35.556Z,72.20
2022-08-02T21:19:02.122Z,72.30
2022-08-02T21:21:29.669Z,72.40
2022-08-02T21:23:57.941Z,72.60
2022-08-02T21:26:27.881Z,72.80
2022-08-02T21:28:57.281Z,73.10
2022-08-02T21:31:24.249Z,73.30
2022-08-02T21:33:59.360Z,73.60
2022-08-02T21:36:33.031Z,73.60
2022-08-02T21:39:08.730Z,73.80
2022-08-02T21:41:38.839Z,74.00
2022-08-02T21:44:12.244Z,74.00
2022-08-02T21:46:38.526Z,74.30
2022-08-02T21:49:05.006Z,74.60
2022-08-02T21:51:34.281Z,74.70
2022-08-02T21:54:18.750Z,74.90
2022-08-02T21:56:46.654Z,75.10
2022-08-02T21:59:17.250Z,75.20
2022-08-02T22:01:53.010Z,75.50
2022-08-02T22:04:20.656Z,76.30
2022-08-02T22:06:49.244Z,75.80
2022-08-02T22:09:17.702Z,76.10
2022-08-02T22:12:04.664Z,76.40
2022-08-02T22:14:37.064Z,76.70
2022-08-02T22:17:08.813Z,76.80
2022-08-02T22:19:35.633Z,77.00
2022-08-02T22:22:02.610Z,77.20
2022-08-02T22:24:30.247Z,77.50
2022-08-02T22:26:57.122Z,77.90
2022-08-02T22:29:23.352Z,78.20
2022-08-02T22:31:49.557Z,78.40
2022-08-02T22:34:36.836Z,78.40
2022-08-02T22:37:02.624Z,78.40
2022-08-02T22:39:33.506Z,78.50
2022-08-02T22:42:05.180Z,78.70
2022-08-02T22:44:34.196Z,79.00
2022-08-02T22:47:06.778Z,79.20
2022-08-02T22:49:44.394Z,79.40
2022-08-02T22:52:12.696Z,79.50
2022-08-02T22:54:40.504Z,79.70
2022-08-02T22:57:11.216Z,80.00
2022-08-02T22:59:39.865Z,80.20
2022-08-02T23:02:06.824Z,80.40
2022-08-02T23:04:33.002Z,80.60
2022-08-02T23:06:59.063Z,80.70
2022-08-02T23:09:25.277Z,81.10
2022-08-02T23:11:51.316Z,81.40
2022-08-02T23:14:17.466Z,81.70
2022-08-02T23:17:02.455Z,81.70
2022-08-02T23:19:47.521Z,81.70
2022-08-02T23:22:13.775Z,81.80
2022-08-02T23:24:40.011Z,82.10
2022-08-02T23:27:06.094Z,82.20
2022-08-02T23:29:32.206Z,82.50
2022-08-02T23:31:59.159Z,82.70
2022-08-02T23:34:25.545Z,83.00
2022-08-02T23:36:51.599Z,83.30
2022-08-02T23:39:17.769Z,83.70
2022-08-02T23:41:43.902Z,83.80
2022-08-02T23:44:14.883Z,84.00
2022-08-02T23:46:43.646Z,84.20
2022-08-02T23:49:11.748Z,84.30
2022-08-02T23:51:37.872Z,84.40
2022-08-02T23:54:04.399Z,84.60
2022-08-02T23:56:30.588Z,84.90
2022-08-02T23:58:56.838Z,85.10
